sensor_id;sensor_type;location;lat;lon;timestamp;P1;durP1;ratioP1;P2;durP2;ratioP2
3841;SDS011;1936;47.074;15.336;2022-07-30T00:00:43;11.30;;;10.10;;
3841;SDS011;1936;47.074;15.336;2022-07-30T00:02:47;10.40;;;9.40;;
3841;SDS011;1936;47.074;15.336;2022-07-30T00:04:51;9.53;;;8.73;;
3841;SDS011;1936;47.074;15.336;2022-07-30T00:06:59;11.77;;;10.80;;
3841;SDS011;1936;47.074;15.336;2022-07-30T00:09:08;11.47;;;10.47;;
3841;SDS011;1936;47.074;15.336;2022-07-30T00:11:16;11.03;;;9.93;;
3841;SDS011;1936;47.074;15.336;2022-07-30T00:13:30;11.43;;;10.43;;
3841;SDS011;1936;47.074;15.336;2022-07-30T00:15:39;11.47;;;10.47;;
3841;SDS011;1936;47.074;15.336;2022-07-30T00:17:53;11.83;;;10.73;;
3841;SDS011;1936;47.074;15.336;2022-07-30T00:20:19;11.93;;;10.83;;
3841;SDS011;1936;47.074;15.336;2022-07-30T00:22:47;11.50;;;10.60;;
3841;SDS011;1936;47.074;15.336;2022-07-30T00:24:53;12.23;;;11.13;;
3841;SDS011;1936;47.074;15.336;2022-07-30T00:27:03;11.90;;;10.70;;
3841;SDS011;1936;47.074;15.336;2022-07-30T00:29:23;11.53;;;10.43;;
3841;SDS011;1936;47.074;15.336;2022-07-30T00:31:30;12.13;;;11.13;;
3841;SDS011;1936;47.074;15.336;2022-07-30T00:33:36;12.23;;;11.23;;
3841;SDS011;1936;47.074;15.336;2022-07-30T00:35:42;12.23;;;11.07;;
3841;SDS011;1936;47.074;15.336;2022-07-30T00:37:57;11.83;;;10.93;;
3841;SDS011;1936;47.074;15.336;2022-07-30T00:40:17;8.67;;;7.87;;
3841;SDS011;1936;47.074;15.336;2022-07-30T00:42:22;11.43;;;10.43;;
3841;SDS011;1936;47.074;15.336;2022-07-30T00:44:31;10.27;;;9.37;;
3841;SDS011;1936;47.074;15.336;2022-07-30T00:46:46;11.03;;;9.83;;
3841;SDS011;1936;47.074;15.336;2022-07-30T00:48:53;10.57;;;9.70;;
3841;SDS011;1936;47.074;15.336;2022-07-30T00:50:59;10.97;;;9.97;;
3841;SDS011;1936;47.074;15.336;2022-07-30T00:53:04;11.20;;;10.20;;
3841;SDS011;1936;47.074;15.336;2022-07-30T00:55:08;11.67;;;10.67;;
3841;SDS011;1936;47.074;15.336;2022-07-30T00:57:13;10.63;;;9.70;;
3841;SDS011;1936;47.074;15.336;2022-07-30T01:05:20;13.00;;;9.33;;
3841;SDS011;1936;47.074;15.336;2022-07-30T01:07:40;9.80;;;8.80;;
3841;SDS011;1936;47.074;15.336;2022-07-30T01:10:08;10.00;;;8.93;;
3841;SDS011;1936;47.074;15.336;2022-07-30T01:12:12;9.53;;;8.73;;
3841;SDS011;1936;47.074;15.336;2022-07-30T01:14:23;10.70;;;9.80;;
3841;SDS011;1936;47.074;15.336;2022-07-30T01:16:29;10.90;;;9.80;;
3841;SDS011;1936;47.074;15.336;2022-07-30T01:18:41;9.83;;;8.93;;
3841;SDS011;1936;47.074;15.336;2022-07-30T01:21:08;9.30;;;8.40;;
3841;SDS011;1936;47.074;15.336;2022-07-30T01:23:30;10.20;;;9.30;;
3841;SDS011;1936;47.074;15.336;2022-07-30T01:25:47;9.80;;;8.90;;
3841;SDS011;1936;47.074;15.336;2022-07-30T01:28:03;9.50;;;8.27;;
3841;SDS011;1936;47.074;15.336;2022-07-30T01:30:07;10.03;;;9.13;;
3841;SDS011;1936;47.074;15.336;2022-07-30T01:32:11;10.67;;;9.57;;
3841;SDS011;1936;47.074;15.336;2022-07-30T01:34:20;8.97;;;8.17;;
3841;SDS011;1936;47.074;15.336;2022-07-30T01:36:39;9.90;;;9.10;;
3841;SDS011;1936;47.074;15.336;2022-07-30T01:39:25;11.27;;;9.80;;
3841;SDS011;1936;47.074;15.336;2022-07-30T01:41:59;10.70;;;9.70;;
3841;SDS011;1936;47.074;15.336;2022-07-30T01:44:12;12.70;;;10.53;;
3841;SDS011;1936;47.074;15.336;2022-07-30T01:46:34;11.83;;;10.83;;
3841;SDS011;1936;47.074;15.336;2022-07-30T01:48:51;8.23;;;7.53;;
3841;SDS011;1936;47.074;15.336;2022-07-30T01:51:41;10.40;;;9.07;;
3841;SDS011;1936;47.074;15.336;2022-07-30T01:53:59;10.20;;;9.30;;
3841;SDS011;1936;47.074;15.336;2022-07-30T01:56:08;9.00;;;8.20;;
3841;SDS011;1936;47.074;15.336;2022-07-30T01:58:30;14.60;;;10.13;;
3841;SDS011;1936;47.074;15.336;2022-07-30T02:00:40;10.40;;;9.50;;
3841;SDS011;1936;47.074;15.336;2022-07-30T02:05:45;9.20;;;8.40;;
3841;SDS011;1936;47.074;15.336;2022-07-30T02:08:34;8.30;;;7.60;;
3841;SDS011;1936;47.074;15.336;2022-07-30T02:10:43;8.40;;;7.60;;
3841;SDS011;1936;47.074;15.336;2022-07-30T02:13:02;8.23;;;7.50;;
3841;SDS011;1936;47.074;15.336;2022-07-30T02:17:39;10.00;;;6.57;;
3841;SDS011;1936;47.074;15.336;2022-07-30T02:19:48;7.37;;;6.73;;
3841;SDS011;1936;47.074;15.336;2022-07-30T02:21:58;8.27;;;7.47;;
3841;SDS011;1936;47.074;15.336;2022-07-30T02:28:43;7.13;;;6.53;;
3841;SDS011;1936;47.074;15.336;2022-07-30T02:34:21;6.00;;;5.60;;
3841;SDS011;1936;47.074;15.336;2022-07-30T02:36:26;7.10;;;6.50;;
3841;SDS011;1936;47.074;15.336;2022-07-30T02:39:32;6.80;;;5.47;;
3841;SDS011;1936;47.074;15.336;2022-07-30T02:41:55;7.37;;;6.67;;
3841;SDS011;1936;47.074;15.336;2022-07-30T02:44:19;6.73;;;6.13;;
3841;SDS011;1936;47.074;15.336;2022-07-30T02:46:42;6.73;;;6.23;;
3841;SDS011;1936;47.074;15.336;2022-07-30T02:49:05;6.63;;;6.03;;
3841;SDS011;1936;47.074;15.336;2022-07-30T02:51:32;7.20;;;5.97;;
3841;SDS011;1936;47.074;15.336;2022-07-30T02:53:59;13.73;;;6.30;;
3841;SDS011;1936;47.074;15.336;2022-07-30T02:56:25;7.17;;;6.47;;
3841;SDS011;1936;47.074;15.336;2022-07-30T02:58:49;7.30;;;6.70;;
3841;SDS011;1936;47.074;15.336;2022-07-30T03:01:13;7.37;;;6.77;;
3841;SDS011;1936;47.074;15.336;2022-07-30T03:03:37;8.37;;;6.40;;
3841;SDS011;1936;47.074;15.336;2022-07-30T03:06:00;8.17;;;7.53;;
3841;SDS011;1936;47.074;15.336;2022-07-30T03:08:27;8.53;;;7.73;;
3841;SDS011;1936;47.074;15.336;2022-07-30T03:10:51;8.10;;;7.20;;
3841;SDS011;1936;47.074;15.336;2022-07-30T03:13:18;7.67;;;6.97;;
3841;SDS011;1936;47.074;15.336;2022-07-30T03:15:46;7.10;;;6.50;;
3841;SDS011;1936;47.074;15.336;2022-07-30T03:18:22;7.57;;;6.87;;
3841;SDS011;1936;47.074;15.336;2022-07-30T03:20:55;8.27;;;7.37;;
3841;SDS011;1936;47.074;15.336;2022-07-30T03:49:32;7.53;;;5.57;;
3841;SDS011;1936;47.074;15.336;2022-07-30T04:01:18;7.03;;;6.43;;
3841;SDS011;1936;47.074;15.336;2022-07-30T04:31:41;7.27;;;6.63;;
3841;SDS011;1936;47.074;15.336;2022-07-30T04:48:39;6.70;;;5.90;;
3841;SDS011;1936;47.074;15.336;2022-07-30T07:46:59;2.67;;;2.40;;
3841;SDS011;1936;47.074;15.336;2022-07-30T07:59:34;3.20;;;2.23;;
3841;SDS011;1936;47.074;15.336;2022-07-30T08:02:38;3.47;;;3.17;;
3841;SDS011;1936;47.074;15.336;2022-07-30T08:05:02;4.77;;;2.93;;
3841;SDS011;1936;47.074;15.336;2022-07-30T08:13:03;2.50;;;2.30;;
3841;SDS011;1936;47.074;15.336;2022-07-30T08:15:47;2.87;;;2.63;;
3841;SDS011;1936;47.074;15.336;2022-07-30T08:18:17;2.43;;;2.23;;
3841;SDS011;1936;47.074;15.336;2022-07-30T08:20:39;4.13;;;2.80;;
3841;SDS011;1936;47.074;15.336;2022-07-30T08:23:02;2.00;;;1.90;;
3841;SDS011;1936;47.074;15.336;2022-07-30T08:25:24;3.17;;;2.83;;
3841;SDS011;1936;47.074;15.336;2022-07-30T08:27:47;3.70;;;3.27;;
3841;SDS011;1936;47.074;15.336;2022-07-30T08:30:11;2.93;;;2.47;;
3841;SDS011;1936;47.074;15.336;2022-07-30T08:32:34;3.20;;;2.80;;
3841;SDS011;1936;47.074;15.336;2022-07-30T08:34:59;7.43;;;2.97;;
3841;SDS011;1936;47.074;15.336;2022-07-30T08:37:22;3.50;;;3.20;;
3841;SDS011;1936;47.074;15.336;2022-07-30T08:39:45;2.87;;;2.67;;
3841;SDS011;1936;47.074;15.336;2022-07-30T08:42:08;3.40;;;3.10;;
3841;SDS011;1936;47.074;15.336;2022-07-30T08:44:31;3.07;;;2.87;;
3841;SDS011;1936;47.074;15.336;2022-07-30T08:46:53;3.93;;;3.03;;
3841;SDS011;1936;47.074;15.336;2022-07-30T08:49:18;4.83;;;4.53;;
3841;SDS011;1936;47.074;15.336;2022-07-30T08:51:42;4.70;;;4.30;;
3841;SDS011;1936;47.074;15.336;2022-07-30T08:54:04;6.87;;;4.80;;
3841;SDS011;1936;47.074;15.336;2022-07-30T08:56:27;4.60;;;4.20;;
3841;SDS011;1936;47.074;15.336;2022-07-30T08:58:51;5.37;;;4.93;;
3841;SDS011;1936;47.074;15.336;2022-07-30T09:01:13;5.40;;;4.90;;
3841;SDS011;1936;47.074;15.336;2022-07-30T09:03:38;5.23;;;4.73;;
3841;SDS011;1936;47.074;15.336;2022-07-30T09:06:03;6.03;;;5.53;;
3841;SDS011;1936;47.074;15.336;2022-07-30T09:08:27;5.77;;;5.20;;
3841;SDS011;1936;47.074;15.336;2022-07-30T09:10:50;5.30;;;4.90;;
3841;SDS011;1936;47.074;15.336;2022-07-30T09:13:22;5.10;;;4.70;;
3841;SDS011;1936;47.074;15.336;2022-07-30T09:15:44;5.63;;;5.10;;
3841;SDS011;1936;47.074;15.336;2022-07-30T09:18:06;4.70;;;4.40;;
3841;SDS011;1936;47.074;15.336;2022-07-30T09:20:30;7.37;;;5.50;;
3841;SDS011;1936;47.074;15.336;2022-07-30T09:22:54;5.50;;;5.00;;
3841;SDS011;1936;47.074;15.336;2022-07-30T09:27:58;3.80;;;3.50;;
3841;SDS011;1936;47.074;15.336;2022-07-30T09:30:44;4.37;;;4.07;;
3841;SDS011;1936;47.074;15.336;2022-07-30T09:33:18;4.13;;;3.73;;
3841;SDS011;1936;47.074;15.336;2022-07-30T09:36:00;4.13;;;3.60;;
3841;SDS011;1936;47.074;15.336;2022-07-30T09:38:45;4.43;;;4.13;;
3841;SDS011;1936;47.074;15.336;2022-07-30T09:41:49;5.20;;;4.20;;
3841;SDS011;1936;47.074;15.336;2022-07-30T09:47:35;4.03;;;3.63;;
3841;SDS011;1936;47.074;15.336;2022-07-30T09:50:07;6.47;;;3.50;;
3841;SDS011;1936;47.074;15.336;2022-07-30T09:52:49;4.33;;;3.77;;
3841;SDS011;1936;47.074;15.336;2022-07-30T09:55:29;3.23;;;2.93;;
3841;SDS011;1936;47.074;15.336;2022-07-30T09:58:02;4.37;;;3.53;;
3841;SDS011;1936;47.074;15.336;2022-07-30T10:00:37;4.30;;;3.90;;
3841;SDS011;1936;47.074;15.336;2022-07-30T10:08:46;3.93;;;3.63;;
3841;SDS011;1936;47.074;15.336;2022-07-30T10:11:35;3.83;;;3.53;;
3841;SDS011;1936;47.074;15.336;2022-07-30T10:13:59;5.23;;;3.57;;
3841;SDS011;1936;47.074;15.336;2022-07-30T10:16:51;2.97;;;2.77;;
3841;SDS011;1936;47.074;15.336;2022-07-30T10:19:18;3.77;;;3.47;;
3841;SDS011;1936;47.074;15.336;2022-07-30T10:22:28;4.00;;;3.70;;
3841;SDS011;1936;47.074;15.336;2022-07-30T10:36:54;3.93;;;3.63;;
3841;SDS011;1936;47.074;15.336;2022-07-30T10:39:23;3.87;;;3.43;;
3841;SDS011;1936;47.074;15.336;2022-07-30T10:41:56;4.50;;;4.10;;
3841;SDS011;1936;47.074;15.336;2022-07-30T10:44:29;5.03;;;2.93;;
3841;SDS011;1936;47.074;15.336;2022-07-30T10:46:54;4.20;;;3.90;;
3841;SDS011;1936;47.074;15.336;2022-07-30T10:49:27;3.97;;;3.67;;
3841;SDS011;1936;47.074;15.336;2022-07-30T10:52:02;4.57;;;4.00;;
3841;SDS011;1936;47.074;15.336;2022-07-30T10:54:34;7.23;;;4.40;;
3841;SDS011;1936;47.074;15.336;2022-07-30T10:57:01;4.60;;;4.20;;
3841;SDS011;1936;47.074;15.336;2022-07-30T10:59:24;4.10;;;3.80;;
3841;SDS011;1936;47.074;15.336;2022-07-30T11:02:07;5.20;;;4.80;;
3841;SDS011;1936;47.074;15.336;2022-07-30T11:04:30;6.60;;;3.67;;
3841;SDS011;1936;47.074;15.336;2022-07-30T11:07:02;4.17;;;3.80;;
3841;SDS011;1936;47.074;15.336;2022-07-30T11:09:41;5.23;;;3.63;;
3841;SDS011;1936;47.074;15.336;2022-07-30T11:15:11;6.40;;;4.00;;
3841;SDS011;1936;47.074;15.336;2022-07-30T11:17:57;3.87;;;3.57;;
3841;SDS011;1936;47.074;15.336;2022-07-30T11:20:20;4.07;;;3.77;;
3841;SDS011;1936;47.074;15.336;2022-07-30T11:22:44;5.13;;;4.67;;
3841;SDS011;1936;47.074;15.336;2022-07-30T12:02:27;3.97;;;3.57;;
3841;SDS011;1936;47.074;15.336;2022-07-30T12:04:31;3.87;;;3.57;;
3841;SDS011;1936;47.074;15.336;2022-07-30T12:06:41;3.00;;;2.80;;
3841;SDS011;1936;47.074;15.336;2022-07-30T12:08:46;3.50;;;3.20;;
3841;SDS011;1936;47.074;15.336;2022-07-30T12:10:57;4.43;;;3.77;;
3841;SDS011;1936;47.074;15.336;2022-07-30T12:13:11;3.87;;;3.23;;
3841;SDS011;1936;47.074;15.336;2022-07-30T12:15:45;3.70;;;3.47;;
3841;SDS011;1936;47.074;15.336;2022-07-30T12:17:55;2.83;;;2.63;;
3841;SDS011;1936;47.074;15.336;2022-07-30T12:20:26;2.77;;;2.57;;
3841;SDS011;1936;47.074;15.336;2022-07-30T12:22:30;5.47;;;3.40;;
3841;SDS011;1936;47.074;15.336;2022-07-30T12:24:34;5.03;;;2.40;;
3841;SDS011;1936;47.074;15.336;2022-07-30T12:26:38;2.50;;;2.30;;
3841;SDS011;1936;47.074;15.336;2022-07-30T12:28:41;3.87;;;2.67;;
3841;SDS011;1936;47.074;15.336;2022-07-30T12:30:47;3.03;;;2.63;;
3841;SDS011;1936;47.074;15.336;2022-07-30T12:32:51;3.97;;;3.57;;
3841;SDS011;1936;47.074;15.336;2022-07-30T12:34:56;3.63;;;2.80;;
3841;SDS011;1936;47.074;15.336;2022-07-30T12:37:06;3.13;;;2.93;;
3841;SDS011;1936;47.074;15.336;2022-07-30T12:39:16;3.30;;;3.00;;
3841;SDS011;1936;47.074;15.336;2022-07-30T12:41:20;6.23;;;2.20;;
3841;SDS011;1936;47.074;15.336;2022-07-30T12:43:46;3.90;;;3.60;;
3841;SDS011;1936;47.074;15.336;2022-07-30T12:45:56;2.50;;;2.27;;
3841;SDS011;1936;47.074;15.336;2022-07-30T12:50:18;2.70;;;2.50;;
3841;SDS011;1936;47.074;15.336;2022-07-30T13:00:01;2.23;;;2.13;;
3841;SDS011;1936;47.074;15.336;2022-07-30T13:02:30;5.33;;;2.73;;
3841;SDS011;1936;47.074;15.336;2022-07-30T13:04:52;2.93;;;2.40;;
3841;SDS011;1936;47.074;15.336;2022-07-30T13:07:32;2.67;;;2.47;;
3841;SDS011;1936;47.074;15.336;2022-07-30T13:10:05;2.70;;;2.50;;
3841;SDS011;1936;47.074;15.336;2022-07-30T13:12:29;1.93;;;1.83;;
3841;SDS011;1936;47.074;15.336;2022-07-30T13:49:42;2.87;;;1.90;;
3841;SDS011;1936;47.074;15.336;2022-07-30T13:51:49;2.50;;;2.30;;
3841;SDS011;1936;47.074;15.336;2022-07-30T13:53:53;5.10;;;3.00;;
3841;SDS011;1936;47.074;15.336;2022-07-30T13:55:58;3.80;;;2.90;;
3841;SDS011;1936;47.074;15.336;2022-07-30T13:58:01;7.53;;;2.63;;
3841;SDS011;1936;47.074;15.336;2022-07-30T14:00:07;3.23;;;2.90;;
3841;SDS011;1936;47.074;15.336;2022-07-30T14:02:12;6.50;;;4.43;;
3841;SDS011;1936;47.074;15.336;2022-07-30T14:04:17;2.73;;;2.53;;
3841;SDS011;1936;47.074;15.336;2022-07-30T14:06:21;2.77;;;2.20;;
3841;SDS011;1936;47.074;15.336;2022-07-30T14:08:25;2.50;;;2.30;;
3841;SDS011;1936;47.074;15.336;2022-07-30T14:10:32;3.10;;;2.37;;
3841;SDS011;1936;47.074;15.336;2022-07-30T14:12:36;2.87;;;2.57;;
3841;SDS011;1936;47.074;15.336;2022-07-30T14:14:40;2.93;;;2.60;;
3841;SDS011;1936;47.074;15.336;2022-07-30T14:16:44;2.80;;;2.60;;
3841;SDS011;1936;47.074;15.336;2022-07-30T14:18:57;4.07;;;2.50;;
3841;SDS011;1936;47.074;15.336;2022-07-30T14:21:00;2.60;;;2.40;;
3841;SDS011;1936;47.074;15.336;2022-07-30T14:23:06;3.60;;;3.13;;
3841;SDS011;1936;47.074;15.336;2022-07-30T14:25:09;2.50;;;2.30;;
3841;SDS011;1936;47.074;15.336;2022-07-30T14:27:13;2.80;;;2.60;;
3841;SDS011;1936;47.074;15.336;2022-07-30T14:29:21;3.17;;;2.80;;
3841;SDS011;1936;47.074;15.336;2022-07-30T14:31:26;6.90;;;2.20;;
3841;SDS011;1936;47.074;15.336;2022-07-30T14:33:30;6.17;;;2.10;;
3841;SDS011;1936;47.074;15.336;2022-07-30T14:35:37;3.30;;;2.33;;
3841;SDS011;1936;47.074;15.336;2022-07-30T14:37:40;3.90;;;2.67;;
3841;SDS011;1936;47.074;15.336;2022-07-30T14:39:45;2.00;;;1.90;;
3841;SDS011;1936;47.074;15.336;2022-07-30T14:41:48;3.00;;;2.23;;
3841;SDS011;1936;47.074;15.336;2022-07-30T14:43:56;2.47;;;2.27;;
3841;SDS011;1936;47.074;15.336;2022-07-30T14:45:59;4.00;;;2.77;;
3841;SDS011;1936;47.074;15.336;2022-07-30T14:48:03;2.53;;;1.97;;
3841;SDS011;1936;47.074;15.336;2022-07-30T14:50:06;2.57;;;2.37;;
3841;SDS011;1936;47.074;15.336;2022-07-30T14:52:10;3.20;;;2.40;;
3841;SDS011;1936;47.074;15.336;2022-07-30T14:54:14;2.57;;;2.03;;
3841;SDS011;1936;47.074;15.336;2022-07-30T14:56:19;2.87;;;2.60;;
3841;SDS011;1936;47.074;15.336;2022-07-30T14:58:24;2.53;;;2.33;;
3841;SDS011;1936;47.074;15.336;2022-07-30T15:00:27;2.83;;;2.63;;
3841;SDS011;1936;47.074;15.336;2022-07-30T15:02:49;2.30;;;2.10;;
3841;SDS011;1936;47.074;15.336;2022-07-30T15:04:52;2.73;;;1.80;;
3841;SDS011;1936;47.074;15.336;2022-07-30T15:06:56;4.20;;;2.20;;
3841;SDS011;1936;47.074;15.336;2022-07-30T15:09:01;4.47;;;1.70;;
3841;SDS011;1936;47.074;15.336;2022-07-30T15:11:05;2.00;;;1.80;;
3841;SDS011;1936;47.074;15.336;2022-07-30T15:13:11;2.53;;;2.33;;
3841;SDS011;1936;47.074;15.336;2022-07-30T15:15:16;1.93;;;1.83;;
3841;SDS011;1936;47.074;15.336;2022-07-30T15:17:22;1.97;;;1.80;;
3841;SDS011;1936;47.074;15.336;2022-07-30T15:19:26;5.17;;;1.93;;
3841;SDS011;1936;47.074;15.336;2022-07-30T15:21:30;3.83;;;3.00;;
3841;SDS011;1936;47.074;15.336;2022-07-30T15:23:33;3.57;;;2.57;;
3841;SDS011;1936;47.074;15.336;2022-07-30T15:25:37;2.43;;;2.20;;
3841;SDS011;1936;47.074;15.336;2022-07-30T15:27:40;2.27;;;2.07;;
3841;SDS011;1936;47.074;15.336;2022-07-30T15:29:45;2.53;;;2.10;;
3841;SDS011;1936;47.074;15.336;2022-07-30T15:31:50;2.57;;;1.90;;
3841;SDS011;1936;47.074;15.336;2022-07-30T15:33:53;6.60;;;1.97;;
3841;SDS011;1936;47.074;15.336;2022-07-30T15:35:57;2.03;;;1.90;;
3841;SDS011;1936;47.074;15.336;2022-07-30T15:38:00;2.20;;;1.93;;
3841;SDS011;1936;47.074;15.336;2022-07-30T15:40:04;2.07;;;1.80;;
3841;SDS011;1936;47.074;15.336;2022-07-30T15:42:08;1.90;;;1.80;;
3841;SDS011;1936;47.074;15.336;2022-07-30T15:44:12;1.90;;;1.80;;
3841;SDS011;1936;47.074;15.336;2022-07-30T15:46:21;2.10;;;1.63;;
3841;SDS011;1936;47.074;15.336;2022-07-30T15:48:32;2.50;;;1.80;;
3841;SDS011;1936;47.074;15.336;2022-07-30T15:50:36;1.80;;;1.33;;
3841;SDS011;1936;47.074;15.336;2022-07-30T15:52:39;1.67;;;1.57;;
3841;SDS011;1936;47.074;15.336;2022-07-30T15:54:42;2.70;;;1.60;;
3841;SDS011;1936;47.074;15.336;2022-07-30T15:56:46;1.40;;;1.30;;
3841;SDS011;1936;47.074;15.336;2022-07-30T15:58:50;1.50;;;1.30;;
3841;SDS011;1936;47.074;15.336;2022-07-30T16:00:53;1.57;;;1.30;;
3841;SDS011;1936;47.074;15.336;2022-07-30T16:03:01;1.80;;;1.50;;
3841;SDS011;1936;47.074;15.336;2022-07-30T16:05:06;5.20;;;1.13;;
3841;SDS011;1936;47.074;15.336;2022-07-30T16:07:14;1.60;;;1.50;;
3841;SDS011;1936;47.074;15.336;2022-07-30T16:09:35;1.70;;;1.60;;
3841;SDS011;1936;47.074;15.336;2022-07-30T16:15:09;2.27;;;1.40;;
3841;SDS011;1936;47.074;15.336;2022-07-30T16:17:16;2.80;;;0.90;;
3841;SDS011;1936;47.074;15.336;2022-07-30T16:19:45;2.60;;;1.90;;
3841;SDS011;1936;47.074;15.336;2022-07-30T16:21:52;2.20;;;1.43;;
3841;SDS011;1936;47.074;15.336;2022-07-30T16:23:56;1.33;;;1.23;;
3841;SDS011;1936;47.074;15.336;2022-07-30T16:26:01;2.13;;;1.20;;
3841;SDS011;1936;47.074;15.336;2022-07-30T16:28:05;2.90;;;1.50;;
3841;SDS011;1936;47.074;15.336;2022-07-30T16:30:09;1.67;;;1.57;;
3841;SDS011;1936;47.074;15.336;2022-07-30T16:32:13;1.73;;;1.37;;
3841;SDS011;1936;47.074;15.336;2022-07-30T16:34:16;2.00;;;1.43;;
3841;SDS011;1936;47.074;15.336;2022-07-30T16:36:28;2.67;;;1.63;;
3841;SDS011;1936;47.074;15.336;2022-07-30T16:38:31;3.13;;;1.50;;
3841;SDS011;1936;47.074;15.336;2022-07-30T16:40:35;1.90;;;1.50;;
3841;SDS011;1936;47.074;15.336;2022-07-30T16:42:39;1.70;;;1.60;;
3841;SDS011;1936;47.074;15.336;2022-07-30T16:44:43;3.17;;;1.97;;
3841;SDS011;1936;47.074;15.336;2022-07-30T16:46:46;1.97;;;1.70;;
3841;SDS011;1936;47.074;15.336;2022-07-30T16:48:50;2.50;;;2.30;;
3841;SDS011;1936;47.074;15.336;2022-07-30T16:50:54;1.63;;;1.40;;
3841;SDS011;1936;47.074;15.336;2022-07-30T16:52:59;1.63;;;1.23;;
3841;SDS011;1936;47.074;15.336;2022-07-30T16:55:02;2.13;;;1.47;;
3841;SDS011;1936;47.074;15.336;2022-07-30T16:57:06;3.33;;;1.43;;
3841;SDS011;1936;47.074;15.336;2022-07-30T16:59:11;1.57;;;1.33;;
3841;SDS011;1936;47.074;15.336;2022-07-30T17:01:17;3.97;;;2.57;;
3841;SDS011;1936;47.074;15.336;2022-07-30T17:03:21;2.53;;;1.70;;
3841;SDS011;1936;47.074;15.336;2022-07-30T17:05:26;1.57;;;1.10;;
3841;SDS011;1936;47.074;15.336;2022-07-30T17:07:29;1.83;;;1.73;;
3841;SDS011;1936;47.074;15.336;2022-07-30T17:09:34;1.80;;;1.50;;
3841;SDS011;1936;47.074;15.336;2022-07-30T17:11:38;1.40;;;1.30;;
3841;SDS011;1936;47.074;15.336;2022-07-30T17:13:48;1.60;;;1.50;;
3841;SDS011;1936;47.074;15.336;2022-07-30T17:15:51;2.60;;;1.30;;
3841;SDS011;1936;47.074;15.336;2022-07-30T17:17:55;2.40;;;1.37;;
3841;SDS011;1936;47.074;15.336;2022-07-30T17:19:58;2.67;;;1.30;;
3841;SDS011;1936;47.074;15.336;2022-07-30T17:22:04;1.47;;;1.37;;
3841;SDS011;1936;47.074;15.336;2022-07-30T17:24:08;2.33;;;1.30;;
3841;SDS011;1936;47.074;15.336;2022-07-30T17:26:15;1.87;;;1.67;;
3841;SDS011;1936;47.074;15.336;2022-07-30T17:28:19;1.53;;;1.43;;
3841;SDS011;1936;47.074;15.336;2022-07-30T17:30:28;3.17;;;1.50;;
3841;SDS011;1936;47.074;15.336;2022-07-30T17:32:31;2.40;;;1.57;;
3841;SDS011;1936;47.074;15.336;2022-07-30T17:34:35;1.47;;;1.37;;
3841;SDS011;1936;47.074;15.336;2022-07-30T17:36:39;1.60;;;1.13;;
3841;SDS011;1936;47.074;15.336;2022-07-30T17:38:52;2.17;;;1.27;;
3841;SDS011;1936;47.074;15.336;2022-07-30T17:40:56;1.57;;;1.33;;
3841;SDS011;1936;47.074;15.336;2022-07-30T17:43:01;1.10;;;0.83;;
3841;SDS011;1936;47.074;15.336;2022-07-30T17:45:05;1.37;;;1.00;;
3841;SDS011;1936;47.074;15.336;2022-07-30T17:47:10;1.20;;;0.87;;
3841;SDS011;1936;47.074;15.336;2022-07-30T17:49:16;2.03;;;1.40;;
3841;SDS011;1936;47.074;15.336;2022-07-30T17:51:20;2.20;;;1.60;;
3841;SDS011;1936;47.074;15.336;2022-07-30T17:53:23;1.17;;;1.07;;
3841;SDS011;1936;47.074;15.336;2022-07-30T17:55:27;1.30;;;0.93;;
3841;SDS011;1936;47.074;15.336;2022-07-30T17:57:31;2.67;;;1.20;;
3841;SDS011;1936;47.074;15.336;2022-07-30T17:59:37;1.43;;;0.90;;
3841;SDS011;1936;47.074;15.336;2022-07-30T18:01:40;1.67;;;1.47;;
3841;SDS011;1936;47.074;15.336;2022-07-30T18:03:44;2.30;;;1.43;;
3841;SDS011;1936;47.074;15.336;2022-07-30T18:05:47;1.20;;;1.00;;
3841;SDS011;1936;47.074;15.336;2022-07-30T18:07:51;1.47;;;0.90;;
3841;SDS011;1936;47.074;15.336;2022-07-30T18:09:54;1.93;;;1.23;;
3841;SDS011;1936;47.074;15.336;2022-07-30T18:11:58;2.30;;;1.53;;
3841;SDS011;1936;47.074;15.336;2022-07-30T18:14:02;1.40;;;1.10;;
3841;SDS011;1936;47.074;15.336;2022-07-30T18:16:08;3.27;;;1.87;;
3841;SDS011;1936;47.074;15.336;2022-07-30T18:18:12;1.90;;;1.20;;
3841;SDS011;1936;47.074;15.336;2022-07-30T18:20:15;1.23;;;1.13;;
3841;SDS011;1936;47.074;15.336;2022-07-30T18:22:20;1.73;;;1.13;;
3841;SDS011;1936;47.074;15.336;2022-07-30T18:24:32;2.60;;;1.67;;
3841;SDS011;1936;47.074;15.336;2022-07-30T18:26:44;3.53;;;1.30;;
3841;SDS011;1936;47.074;15.336;2022-07-30T18:28:48;1.23;;;1.10;;
3841;SDS011;1936;47.074;15.336;2022-07-30T18:30:52;1.30;;;1.20;;
3841;SDS011;1936;47.074;15.336;2022-07-30T18:32:58;5.53;;;1.67;;
3841;SDS011;1936;47.074;15.336;2022-07-30T18:35:01;1.80;;;1.30;;
3841;SDS011;1936;47.074;15.336;2022-07-30T18:37:11;5.87;;;2.00;;
3841;SDS011;1936;47.074;15.336;2022-07-30T18:39:16;1.83;;;1.57;;
3841;SDS011;1936;47.074;15.336;2022-07-30T18:41:22;1.97;;;1.43;;
3841;SDS011;1936;47.074;15.336;2022-07-30T18:43:27;1.90;;;1.37;;
3841;SDS011;1936;47.074;15.336;2022-07-30T18:45:31;2.50;;;1.50;;
3841;SDS011;1936;47.074;15.336;2022-07-30T18:47:37;3.13;;;2.07;;
3841;SDS011;1936;47.074;15.336;2022-07-30T18:49:42;5.47;;;1.53;;
3841;SDS011;1936;47.074;15.336;2022-07-30T18:51:46;1.83;;;1.17;;
3841;SDS011;1936;47.074;15.336;2022-07-30T18:53:50;5.90;;;1.57;;
3841;SDS011;1936;47.074;15.336;2022-07-30T18:55:54;2.00;;;1.80;;
3841;SDS011;1936;47.074;15.336;2022-07-30T18:57:58;4.43;;;1.63;;
3841;SDS011;1936;47.074;15.336;2022-07-30T19:00:01;5.70;;;1.87;;
3841;SDS011;1936;47.074;15.336;2022-07-30T19:02:05;3.47;;;1.43;;
3841;SDS011;1936;47.074;15.336;2022-07-30T19:04:09;2.90;;;2.17;;
3841;SDS011;1936;47.074;15.336;2022-07-30T19:06:14;1.50;;;1.37;;
3841;SDS011;1936;47.074;15.336;2022-07-30T19:08:21;3.30;;;1.63;;
3841;SDS011;1936;47.074;15.336;2022-07-30T19:10:25;1.60;;;1.47;;
3841;SDS011;1936;47.074;15.336;2022-07-30T19:12:29;3.90;;;1.90;;
3841;SDS011;1936;47.074;15.336;2022-07-30T19:14:33;2.83;;;2.40;;
3841;SDS011;1936;47.074;15.336;2022-07-30T19:16:37;2.80;;;2.10;;
3841;SDS011;1936;47.074;15.336;2022-07-30T19:18:41;2.70;;;2.50;;
3841;SDS011;1936;47.074;15.336;2022-07-30T19:20:44;2.23;;;2.03;;
3841;SDS011;1936;47.074;15.336;2022-07-30T19:22:50;2.40;;;2.17;;
3841;SDS011;1936;47.074;15.336;2022-07-30T19:24:53;5.83;;;2.13;;
3841;SDS011;1936;47.074;15.336;2022-07-30T19:26:57;2.50;;;2.20;;
3841;SDS011;1936;47.074;15.336;2022-07-30T19:29:01;2.60;;;2.40;;
3841;SDS011;1936;47.074;15.336;2022-07-30T19:31:08;3.77;;;2.37;;
3841;SDS011;1936;47.074;15.336;2022-07-30T19:33:11;3.70;;;2.67;;
3841;SDS011;1936;47.074;15.336;2022-07-30T19:35:16;3.67;;;2.10;;
3841;SDS011;1936;47.074;15.336;2022-07-30T19:37:20;2.90;;;2.10;;
3841;SDS011;1936;47.074;15.336;2022-07-30T19:39:25;2.20;;;1.97;;
3841;SDS011;1936;47.074;15.336;2022-07-30T19:41:35;2.70;;;2.17;;
3841;SDS011;1936;47.074;15.336;2022-07-30T19:43:41;5.20;;;2.60;;
3841;SDS011;1936;47.074;15.336;2022-07-30T19:45:58;3.20;;;2.73;;
3841;SDS011;1936;47.074;15.336;2022-07-30T19:48:03;4.73;;;2.03;;
3841;SDS011;1936;47.074;15.336;2022-07-30T19:50:10;3.23;;;2.23;;
3841;SDS011;1936;47.074;15.336;2022-07-30T19:52:14;4.23;;;2.60;;
3841;SDS011;1936;47.074;15.336;2022-07-30T19:54:27;6.00;;;2.70;;
3841;SDS011;1936;47.074;15.336;2022-07-30T19:56:31;5.40;;;2.40;;
3841;SDS011;1936;47.074;15.336;2022-07-30T19:58:38;4.33;;;2.47;;
3841;SDS011;1936;47.074;15.336;2022-07-30T20:00:42;3.20;;;2.60;;
3841;SDS011;1936;47.074;15.336;2022-07-30T20:02:49;4.60;;;2.53;;
3841;SDS011;1936;47.074;15.336;2022-07-30T20:04:53;3.40;;;2.80;;
3841;SDS011;1936;47.074;15.336;2022-07-30T20:06:59;4.60;;;2.90;;
3841;SDS011;1936;47.074;15.336;2022-07-30T20:09:04;4.10;;;2.30;;
3841;SDS011;1936;47.074;15.336;2022-07-30T20:11:16;2.67;;;2.30;;
3841;SDS011;1936;47.074;15.336;2022-07-30T20:13:37;3.43;;;2.47;;
3841;SDS011;1936;47.074;15.336;2022-07-30T20:15:46;3.87;;;2.20;;